sensor_id;sensor_type;location;lat;lon;timestamp;temperature;humidity
46364;DHT22;32071;49.036;9.344;2023-06-14T00:01:44;13.80;80.40
46364;DHT22;32071;49.036;9.344;2023-06-14T00:04:12;13.80;80.30
46364;DHT22;32071;49.036;9.344;2023-06-14T00:06:38;13.90;80.30
46364;DHT22;32071;49.036;9.344;2023-06-14T00:09:03;13.90;79.90
46364;DHT22;32071;49.036;9.344;2023-06-14T00:11:31;13.90;80.20
46364;DHT22;32071;49.036;9.344;2023-06-14T00:13:57;13.90;79.70
46364;DHT22;32071;49.036;9.344;2023-06-14T00:16:23;13.90;79.60
46364;DHT22;32071;49.036;9.344;2023-06-14T00:18:48;13.90;79.30
46364;DHT22;32071;49.036;9.344;2023-06-14T00:21:14;13.90;78.40
46364;DHT22;32071;49.036;9.344;2023-06-14T00:23:39;14.00;78.20
46364;DHT22;32071;49.036;9.344;2023-06-14T00:26:05;14.00;78.90
46364;DHT22;32071;49.036;9.344;2023-06-14T00:28:30;14.00;79.60
46364;DHT22;32071;49.036;9.344;2023-06-14T00:30:56;14.00;79.90
46364;DHT22;32071;49.036;9.344;2023-06-14T00:33:22;14.00;78.90
46364;DHT22;32071;49.036;9.344;2023-06-14T00:35:47;14.00;80.00
46364;DHT22;32071;49.036;9.344;2023-06-14T00:38:13;13.90;79.90
46364;DHT22;32071;49.036;9.344;2023-06-14T00:40:39;13.90;80.20
46364;DHT22;32071;49.036;9.344;2023-06-14T00:43:04;13.90;80.40
46364;DHT22;32071;49.036;9.344;2023-06-14T00:45:30;13.90;80.30
46364;DHT22;32071;49.036;9.344;2023-06-14T00:47:57;13.90;79.90
46364;DHT22;32071;49.036;9.344;2023-06-14T00:50:23;13.80;80.60
46364;DHT22;32071;49.036;9.344;2023-06-14T00:52:49;13.80;80.80
46364;DHT22;32071;49.036;9.344;2023-06-14T00:55:15;13.80;81.30
46364;DHT22;32071;49.036;9.344;2023-06-14T00:57:41;13.70;81.40
46364;DHT22;32071;49.036;9.344;2023-06-14T01:00:07;13.70;81.20
46364;DHT22;32071;49.036;9.344;2023-06-14T01:02:39;13.60;80.90
46364;DHT22;32071;49.036;9.344;2023-06-14T01:05:06;13.60;81.40
46364;DHT22;32071;49.036;9.344;2023-06-14T01:07:54;13.60;82.10
46364;DHT22;32071;49.036;9.344;2023-06-14T01:13:02;13.50;82.40
46364;DHT22;32071;49.036;9.344;2023-06-14T01:15:31;13.40;82.80
46364;DHT22;32071;49.036;9.344;2023-06-14T01:17:57;13.40;83.10
46364;DHT22;32071;49.036;9.344;2023-06-14T01:20:29;13.30;83.10
46364;DHT22;32071;49.036;9.344;2023-06-14T01:22:56;13.20;83.40
46364;DHT22;32071;49.036;9.344;2023-06-14T01:25:22;13.20;83.70
46364;DHT22;32071;49.036;9.344;2023-06-14T01:27:53;13.10;84.30
46364;DHT22;32071;49.036;9.344;2023-06-14T01:30:21;13.10;84.60
46364;DHT22;32071;49.036;9.344;2023-06-14T01:32:48;13.00;86.10
46364;DHT22;32071;49.036;9.344;2023-06-14T01:35:15;13.00;86.10
46364;DHT22;32071;49.036;9.344;2023-06-14T01:37:42;12.90;86.50
46364;DHT22;32071;49.036;9.344;2023-06-14T01:40:08;12.90;86.70
46364;DHT22;32071;49.036;9.344;2023-06-14T01:42:37;12.90;87.70
46364;DHT22;32071;49.036;9.344;2023-06-14T01:45:05;12.80;88.20
46364;DHT22;32071;49.036;9.344;2023-06-14T01:47:31;12.80;88.70
46364;DHT22;32071;49.036;9.344;2023-06-14T01:49:58;12.80;87.50
46364;DHT22;32071;49.036;9.344;2023-06-14T01:52:24;12.90;87.20
46364;DHT22;32071;49.036;9.344;2023-06-14T01:54:50;12.90;87.70
46364;DHT22;32071;49.036;9.344;2023-06-14T01:57:16;13.00;87.40
46364;DHT22;32071;49.036;9.344;2023-06-14T01:59:42;13.00;88.10
46364;DHT22;32071;49.036;9.344;2023-06-14T02:02:07;13.10;88.30
46364;DHT22;32071;49.036;9.344;2023-06-14T02:04:33;13.00;87.90
46364;DHT22;32071;49.036;9.344;2023-06-14T02:06:59;13.00;89.20
46364;DHT22;32071;49.036;9.344;2023-06-14T02:09:25;12.90;89.80
46364;DHT22;32071;49.036;9.344;2023-06-14T02:11:50;12.80;90.20
46364;DHT22;32071;49.036;9.344;2023-06-14T02:14:16;12.70;90.30
46364;DHT22;32071;49.036;9.344;2023-06-14T02:16:42;12.60;90.60
46364;DHT22;32071;49.036;9.344;2023-06-14T02:19:15;12.50;90.90
46364;DHT22;32071;49.036;9.344;2023-06-14T02:21:40;12.40;91.10
46364;DHT22;32071;49.036;9.344;2023-06-14T02:24:06;12.40;91.60
46364;DHT22;32071;49.036;9.344;2023-06-14T02:26:32;12.40;92.00
46364;DHT22;32071;49.036;9.344;2023-06-14T02:28:58;12.30;92.00
46364;DHT22;32071;49.036;9.344;2023-06-14T02:31:23;12.30;92.30
46364;DHT22;32071;49.036;9.344;2023-06-14T02:33:49;12.20;92.70
46364;DHT22;32071;49.036;9.344;2023-06-14T02:36:15;12.10;93.40
46364;DHT22;32071;49.036;9.344;2023-06-14T02:38:40;12.00;93.60
46364;DHT22;32071;49.036;9.344;2023-06-14T02:41:06;12.00;94.30
46364;DHT22;32071;49.036;9.344;2023-06-14T02:43:32;11.90;94.40
46364;DHT22;32071;49.036;9.344;2023-06-14T02:45:57;11.80;94.80
46364;DHT22;32071;49.036;9.344;2023-06-14T02:48:23;11.80;94.40
46364;DHT22;32071;49.036;9.344;2023-06-14T02:50:48;11.80;94.60
46364;DHT22;32071;49.036;9.344;2023-06-14T02:53:14;11.70;93.90
46364;DHT22;32071;49.036;9.344;2023-06-14T02:55:39;11.60;93.30
46364;DHT22;32071;49.036;9.344;2023-06-14T02:58:06;11.60;93.80
46364;DHT22;32071;49.036;9.344;2023-06-14T03:00:31;11.50;94.10
46364;DHT22;32071;49.036;9.344;2023-06-14T03:02:57;11.50;94.90
46364;DHT22;32071;49.036;9.344;2023-06-14T03:05:27;11.40;95.50
46364;DHT22;32071;49.036;9.344;2023-06-14T03:07:53;11.40;95.90
46364;DHT22;32071;49.036;9.344;2023-06-14T03:10:19;11.40;95.90
46364;DHT22;32071;49.036;9.344;2023-06-14T03:12:47;11.40;96.20
46364;DHT22;32071;49.036;9.344;2023-06-14T03:15:13;11.40;96.40
46364;DHT22;32071;49.036;9.344;2023-06-14T03:17:39;11.40;96.80
46364;DHT22;32071;49.036;9.344;2023-06-14T03:20:05;11.30;96.80
46364;DHT22;32071;49.036;9.344;2023-06-14T03:22:31;11.20;96.80
46364;DHT22;32071;49.036;9.344;2023-06-14T03:24:59;11.20;97.50
46364;DHT22;32071;49.036;9.344;2023-06-14T03:27:25;11.10;97.80
46364;DHT22;32071;49.036;9.344;2023-06-14T03:29:53;11.20;97.90
46364;DHT22;32071;49.036;9.344;2023-06-14T03:32:19;11.10;98.10
46364;DHT22;32071;49.036;9.344;2023-06-14T03:34:44;11.20;98.20
46364;DHT22;32071;49.036;9.344;2023-06-14T03:37:10;11.10;98.10
46364;DHT22;32071;49.036;9.344;2023-06-14T03:39:36;11.10;98.00
46364;DHT22;32071;49.036;9.344;2023-06-14T03:42:02;11.10;98.40
46364;DHT22;32071;49.036;9.344;2023-06-14T03:44:27;11.10;98.70
46364;DHT22;32071;49.036;9.344;2023-06-14T03:46:53;11.10;99.20
46364;DHT22;32071;49.036;9.344;2023-06-14T03:49:18;11.10;99.50
46364;DHT22;32071;49.036;9.344;2023-06-14T03:51:44;11.10;99.40
46364;DHT22;32071;49.036;9.344;2023-06-14T03:54:10;11.00;99.60
46364;DHT22;32071;49.036;9.344;2023-06-14T03:56:35;11.00;99.90
46364;DHT22;32071;49.036;9.344;2023-06-14T03:59:01;11.00;99.90
46364;DHT22;32071;49.036;9.344;2023-06-14T04:01:27;11.00;99.90
46364;DHT22;32071;49.036;9.344;2023-06-14T04:03:56;11.00;99.90
46364;DHT22;32071;49.036;9.344;2023-06-14T04:06:22;11.10;99.90
46364;DHT22;32071;49.036;9.344;2023-06-14T04:08:51;11.00;99.90
46364;DHT22;32071;49.036;9.344;2023-06-14T04:11:16;11.00;99.90
46364;DHT22;32071;49.036;9.344;2023-06-14T04:13:42;11.00;99.90
46364;DHT22;32071;49.036;9.344;2023-06-14T04:16:07;11.10;99.90
46364;DHT22;32071;49.036;9.344;2023-06-14T04:18:33;11.10;99.90
46364;DHT22;32071;49.036;9.344;2023-06-14T04:20:58;11.20;99.90
46364;DHT22;32071;49.036;9.344;2023-06-14T04:23:24;11.30;99.90
46364;DHT22;32071;49.036;9.344;2023-06-14T04:25:50;11.30;99.90
46364;DHT22;32071;49.036;9.344;2023-06-14T04:28:16;11.50;99.90
46364;DHT22;32071;49.036;9.344;2023-06-14T04:30:42;11.60;99.90
46364;DHT22;32071;49.036;9.344;2023-06-14T04:33:08;11.60;99.90
46364;DHT22;32071;49.036;9.344;2023-06-14T04:35:35;11.70;99.90
46364;DHT22;32071;49.036;9.344;2023-06-14T04:38:05;11.70;99.90
46364;DHT22;32071;49.036;9.344;2023-06-14T04:40:35;11.80;99.90
46364;DHT22;32071;49.036;9.344;2023-06-14T04:43:01;11.90;99.90
46364;DHT22;32071;49.036;9.344;2023-06-14T04:45:30;12.00;99.90
46364;DHT22;32071;49.036;9.344;2023-06-14T04:47:58;12.10;99.90
46364;DHT22;32071;49.036;9.344;2023-06-14T04:50:24;12.20;99.90
46364;DHT22;32071;49.036;9.344;2023-06-14T04:52:50;12.30;99.90
46364;DHT22;32071;49.036;9.344;2023-06-14T04:55:16;12.30;99.90
46364;DHT22;32071;49.036;9.344;2023-06-14T04:57:42;12.40;99.90
46364;DHT22;32071;49.036;9.344;2023-06-14T05:00:08;12.50;99.90
46364;DHT22;32071;49.036;9.344;2023-06-14T05:02:36;12.60;99.90
46364;DHT22;32071;49.036;9.344;2023-06-14T05:05:03;12.70;99.90
46364;DHT22;32071;49.036;9.344;2023-06-14T05:07:32;12.90;99.90
46364;DHT22;32071;49.036;9.344;2023-06-14T05:09:59;12.90;99.90
46364;DHT22;32071;49.036;9.344;2023-06-14T05:12:24;13.00;98.50
46364;DHT22;32071;49.036;9.344;2023-06-14T05:14:50;13.20;98.10
46364;DHT22;32071;49.036;9.344;2023-06-14T05:17:15;13.40;96.90
46364;DHT22;32071;49.036;9.344;2023-06-14T05:19:42;13.50;96.50
46364;DHT22;32071;49.036;9.344;2023-06-14T05:22:08;13.60;96.20
46364;DHT22;32071;49.036;9.344;2023-06-14T05:24:34;13.80;96.30
46364;DHT22;32071;49.036;9.344;2023-06-14T05:27:00;13.90;96.30
46364;DHT22;32071;49.036;9.344;2023-06-14T05:29:25;14.00;95.60
46364;DHT22;32071;49.036;9.344;2023-06-14T05:31:52;14.10;95.90
46364;DHT22;32071;49.036;9.344;2023-06-14T05:34:18;14.20;94.60
46364;DHT22;32071;49.036;9.344;2023-06-14T05:36:44;14.30;94.30
46364;DHT22;32071;49.036;9.344;2023-06-14T05:39:10;14.50;95.00
46364;DHT22;32071;49.036;9.344;2023-06-14T05:41:37;14.60;94.30
46364;DHT22;32071;49.036;9.344;2023-06-14T05:44:02;14.70;94.40
46364;DHT22;32071;49.036;9.344;2023-06-14T05:46:28;14.80;94.10
46364;DHT22;32071;49.036;9.344;2023-06-14T05:48:54;14.90;94.00
46364;DHT22;32071;49.036;9.344;2023-06-14T05:51:20;15.10;94.10
46364;DHT22;32071;49.036;9.344;2023-06-14T05:53:49;15.20;94.20
46364;DHT22;32071;49.036;9.344;2023-06-14T05:56:17;15.30;94.10
46364;DHT22;32071;49.036;9.344;2023-06-14T05:58:43;15.40;93.90
46364;DHT22;32071;49.036;9.344;2023-06-14T06:01:09;15.50;93.40
46364;DHT22;32071;49.036;9.344;2023-06-14T06:03:35;15.60;93.30
46364;DHT22;32071;49.036;9.344;2023-06-14T06:06:00;15.70;93.00
46364;DHT22;32071;49.036;9.344;2023-06-14T06:08:29;15.80;92.80
46364;DHT22;32071;49.036;9.344;2023-06-14T06:10:55;16.00;92.60
46364;DHT22;32071;49.036;9.344;2023-06-14T06:13:21;16.20;92.70
46364;DHT22;32071;49.036;9.344;2023-06-14T06:15:46;16.30;92.40
46364;DHT22;32071;49.036;9.344;2023-06-14T06:18:12;16.50;93.20
46364;DHT22;32071;49.036;9.344;2023-06-14T06:20:37;16.70;92.70
46364;DHT22;32071;49.036;9.344;2023-06-14T06:23:03;16.80;91.70
46364;DHT22;32071;49.036;9.344;2023-06-14T06:25:28;17.00;91.00
46364;DHT22;32071;49.036;9.344;2023-06-14T06:27:57;17.20;90.90
46364;DHT22;32071;49.036;9.344;2023-06-14T06:30:23;17.40;90.50
46364;DHT22;32071;49.036;9.344;2023-06-14T06:32:49;17.50;90.00
46364;DHT22;32071;49.036;9.344;2023-06-14T06:35:16;17.60;90.40
46364;DHT22;32071;49.036;9.344;2023-06-14T06:37:42;17.70;89.90
46364;DHT22;32071;49.036;9.344;2023-06-14T06:40:08;17.80;89.70
46364;DHT22;32071;49.036;9.344;2023-06-14T06:42:34;17.90;88.20
46364;DHT22;32071;49.036;9.344;2023-06-14T06:45:00;18.00;86.60
46364;DHT22;32071;49.036;9.344;2023-06-14T06:47:26;18.10;86.70
46364;DHT22;32071;49.036;9.344;2023-06-14T06:49:51;18.20;86.00
46364;DHT22;32071;49.036;9.344;2023-06-14T06:52:17;18.30;85.90
46364;DHT22;32071;49.036;9.344;2023-06-14T06:54:43;18.40;86.10
46364;DHT22;32071;49.036;9.344;2023-06-14T06:57:09;18.50;87.40
46364;DHT22;32071;49.036;9.344;2023-06-14T06:59:36;18.60;84.30
46364;DHT22;32071;49.036;9.344;2023-06-14T07:02:02;18.60;85.20
46364;DHT22;32071;49.036;9.344;2023-06-14T07:04:27;18.70;84.90
46364;DHT22;32071;49.036;9.344;2023-06-14T07:06:55;18.80;84.90
46364;DHT22;32071;49.036;9.344;2023-06-14T07:09:20;18.90;85.20
46364;DHT22;32071;49.036;9.344;2023-06-14T07:11:47;19.00;84.50
46364;DHT22;32071;49.036;9.344;2023-06-14T07:14:12;19.10;85.00
46364;DHT22;32071;49.036;9.344;2023-06-14T07:16:38;19.20;83.30
46364;DHT22;32071;49.036;9.344;2023-06-14T07:19:04;19.20;81.90
46364;DHT22;32071;49.036;9.344;2023-06-14T07:21:30;19.40;82.60
46364;DHT22;32071;49.036;9.344;2023-06-14T07:23:56;19.40;82.20
46364;DHT22;32071;49.036;9.344;2023-06-14T07:26:23;19.50;83.60
46364;DHT22;32071;49.036;9.344;2023-06-14T07:28:49;19.60;81.30
46364;DHT22;32071;49.036;9.344;2023-06-14T07:31:17;19.60;82.90
46364;DHT22;32071;49.036;9.344;2023-06-14T07:33:44;19.80;82.10
46364;DHT22;32071;49.036;9.344;2023-06-14T07:36:10;19.80;83.10
46364;DHT22;32071;49.036;9.344;2023-06-14T07:38:36;19.80;81.50
46364;DHT22;32071;49.036;9.344;2023-06-14T07:41:02;19.90;80.00
46364;DHT22;32071;49.036;9.344;2023-06-14T07:43:28;20.00;80.90
46364;DHT22;32071;49.036;9.344;2023-06-14T07:45:53;20.00;80.50
46364;DHT22;32071;49.036;9.344;2023-06-14T07:48:20;20.10;81.50
46364;DHT22;32071;49.036;9.344;2023-06-14T07:50:46;20.10;82.60
46364;DHT22;32071;49.036;9.344;2023-06-14T07:53:11;20.10;82.00
46364;DHT22;32071;49.036;9.344;2023-06-14T07:55:37;20.20;83.10
46364;DHT22;32071;49.036;9.344;2023-06-14T07:58:03;20.20;83.20
46364;DHT22;32071;49.036;9.344;2023-06-14T08:00:29;20.30;81.20
46364;DHT22;32071;49.036;9.344;2023-06-14T08:02:55;20.30;81.80
46364;DHT22;32071;49.036;9.344;2023-06-14T08:05:27;20.20;81.40
46364;DHT22;32071;49.036;9.344;2023-06-14T08:07:53;20.30;80.30
46364;DHT22;32071;49.036;9.344;2023-06-14T08:10:19;20.30;84.30
46364;DHT22;32071;49.036;9.344;2023-06-14T08:12:45;20.30;79.40
46364;DHT22;32071;49.036;9.344;2023-06-14T08:15:10;20.40;80.90
46364;DHT22;32071;49.036;9.344;2023-06-14T08:17:36;20.40;81.00
46364;DHT22;32071;49.036;9.344;2023-06-14T08:20:02;20.60;79.70
46364;DHT22;32071;49.036;9.344;2023-06-14T08:22:30;20.70;76.90
46364;DHT22;32071;49.036;9.344;2023-06-14T08:25:00;20.80;77.40
46364;DHT22;32071;49.036;9.344;2023-06-14T08:27:27;20.90;78.30
46364;DHT22;32071;49.036;9.344;2023-06-14T08:29:53;20.80;80.10
46364;DHT22;32071;49.036;9.344;2023-06-14T08:32:19;21.00;80.50
46364;DHT22;32071;49.036;9.344;2023-06-14T08:34:44;21.00;79.60
46364;DHT22;32071;49.036;9.344;2023-06-14T08:37:10;21.10;79.50
46364;DHT22;32071;49.036;9.344;2023-06-14T08:39:37;21.20;78.40
46364;DHT22;32071;49.036;9.344;2023-06-14T08:42:04;21.20;77.10
46364;DHT22;32071;49.036;9.344;2023-06-14T08:44:31;21.20;76.70
46364;DHT22;32071;49.036;9.344;2023-06-14T08:46:57;21.10;76.70
46364;DHT22;32071;49.036;9.344;2023-06-14T08:49:25;21.10;76.60
46364;DHT22;32071;49.036;9.344;2023-06-14T08:51:57;21.20;77.70
46364;DHT22;32071;49.036;9.344;2023-06-14T08:54:24;21.30;77.50
46364;DHT22;32071;49.036;9.344;2023-06-14T08:56:53;21.50;79.00
46364;DHT22;32071;49.036;9.344;2023-06-14T08:59:24;21.70;77.00
46364;DHT22;32071;49.036;9.344;2023-06-14T09:01:50;21.80;76.90
46364;DHT22;32071;49.036;9.344;2023-06-14T09:04:18;21.90;76.10
46364;DHT22;32071;49.036;9.344;2023-06-14T09:06:45;22.00;73.70
46364;DHT22;32071;49.036;9.344;2023-06-14T09:09:11;22.10;72.40
46364;DHT22;32071;49.036;9.344;2023-06-14T09:11:41;22.00;72.50
46364;DHT22;32071;49.036;9.344;2023-06-14T09:14:07;22.10;73.10
46364;DHT22;32071;49.036;9.344;2023-06-14T09:16:33;22.20;74.60
46364;DHT22;32071;49.036;9.344;2023-06-14T09:18:58;22.30;74.60
46364;DHT22;32071;49.036;9.344;2023-06-14T09:21:24;22.40;73.80
46364;DHT22;32071;49.036;9.344;2023-06-14T09:23:50;22.50;73.50
46364;DHT22;32071;49.036;9.344;2023-06-14T09:26:18;22.60;69.80
46364;DHT22;32071;49.036;9.344;2023-06-14T09:28:47;22.50;71.70
46364;DHT22;32071;49.036;9.344;2023-06-14T09:31:14;22.40;70.20
46364;DHT22;32071;49.036;9.344;2023-06-14T09:33:48;22.40;70.70
46364;DHT22;32071;49.036;9.344;2023-06-14T09:36:25;22.50;69.20
46364;DHT22;32071;49.036;9.344;2023-06-14T09:38:58;22.60;68.10
46364;DHT22;32071;49.036;9.344;2023-06-14T09:41:34;22.60;67.90
46364;DHT22;32071;49.036;9.344;2023-06-14T09:44:01;22.60;69.40
46364;DHT22;32071;49.036;9.344;2023-06-14T09:46:28;22.80;69.00
46364;DHT22;32071;49.036;9.344;2023-06-14T09:48:55;22.90;66.20
46364;DHT22;32071;49.036;9.344;2023-06-14T09:51:22;22.90;66.30
46364;DHT22;32071;49.036;9.344;2023-06-14T09:53:52;23.00;66.20
46364;DHT22;32071;49.036;9.344;2023-06-14T09:56:23;23.00;67.60
46364;DHT22;32071;49.036;9.344;2023-06-14T09:58:55;23.10;67.50
46364;DHT22;32071;49.036;9.344;2023-06-14T10:01:23;23.10;66.50
46364;DHT22;32071;49.036;9.344;2023-06-14T10:03:55;23.10;67.80
46364;DHT22;32071;49.036;9.344;2023-06-14T10:06:22;23.40;66.70
46364;DHT22;32071;49.036;9.344;2023-06-14T10:08:52;23.30;62.50
46364;DHT22;32071;49.036;9.344;2023-06-14T10:11:17;23.20;63.50
46364;DHT22;32071;49.036;9.344;2023-06-14T10:13:43;23.20;63.70
46364;DHT22;32071;49.036;9.344;2023-06-14T10:16:10;23.20;63.20
46364;DHT22;32071;49.036;9.344;2023-06-14T10:22:21;23.10;62.90
46364;DHT22;32071;49.036;9.344;2023-06-14T10:24:50;22.70;61.60
46364;DHT22;32071;49.036;9.344;2023-06-14T10:27:16;22.70;63.90
46364;DHT22;32071;49.036;9.344;2023-06-14T10:32:24;23.40;61.70
46364;DHT22;32071;49.036;9.344;2023-06-14T10:35:06;23.60;61.50
46364;DHT22;32071;49.036;9.344;2023-06-14T10:37:34;23.50;61.00
46364;DHT22;32071;49.036;9.344;2023-06-14T10:40:01;23.40;62.70
46364;DHT22;32071;49.036;9.344;2023-06-14T10:42:33;23.20;62.50
46364;DHT22;32071;49.036;9.344;2023-06-14T10:45:00;22.80;62.40
46364;DHT22;32071;49.036;9.344;2023-06-14T10:47:33;22.60;63.10
46364;DHT22;32071;49.036;9.344;2023-06-14T10:50:06;22.40;62.80
46364;DHT22;32071;49.036;9.344;2023-06-14T10:52:43;22.40;63.70
46364;DHT22;32071;49.036;9.344;2023-06-14T10:55:12;22.30;63.70
46364;DHT22;32071;49.036;9.344;2023-06-14T10:57:44;22.40;63.40
46364;DHT22;32071;49.036;9.344;2023-06-14T11:00:17;22.40;62.90
46364;DHT22;32071;49.036;9.344;2023-06-14T11:05:16;22.60;62.40
46364;DHT22;32071;49.036;9.344;2023-06-14T11:08:15;22.70;62.30
46364;DHT22;32071;49.036;9.344;2023-06-14T11:10:44;22.80;64.50
46364;DHT22;32071;49.036;9.344;2023-06-14T11:13:12;22.80;62.20
46364;DHT22;32071;49.036;9.344;2023-06-14T11:15:44;22.70;61.60
46364;DHT22;32071;49.036;9.344;2023-06-14T11:18:10;22.80;62.40
46364;DHT22;32071;49.036;9.344;2023-06-14T11:20:36;23.00;62.70
46364;DHT22;32071;49.036;9.344;2023-06-14T11:23:02;23.10;62.40
46364;DHT22;32071;49.036;9.344;2023-06-14T11:25:28;23.60;61.90
46364;DHT22;32071;49.036;9.344;2023-06-14T11:27:54;24.00;61.80
46364;DHT22;32071;49.036;9.344;2023-06-14T11:30:23;24.20;59.90
46364;DHT22;32071;49.036;9.344;2023-06-14T11:32:50;24.10;60.50
46364;DHT22;32071;49.036;9.344;2023-06-14T11:35:18;23.90;62.10
46364;DHT22;32071;49.036;9.344;2023-06-14T11:37:44;24.40;63.30
46364;DHT22;32071;49.036;9.344;2023-06-14T11:40:11;24.80;61.70
46364;DHT22;32071;49.036;9.344;2023-06-14T11:42:39;25.20;59.80
46364;DHT22;32071;49.036;9.344;2023-06-14T11:45:10;25.30;61.20
46364;DHT22;32071;49.036;9.344;2023-06-14T11:47:37;25.50;59.20
46364;DHT22;32071;49.036;9.344;2023-06-14T11:50:04;25.60;60.90
46364;DHT22;32071;49.036;9.344;2023-06-14T11:52:31;25.40;59.80
46364;DHT22;32071;49.036;9.344;2023-06-14T11:54:57;24.90;59.10
46364;DHT22;32071;49.036;9.344;2023-06-14T11:57:24;24.60;59.60
46364;DHT22;32071;49.036;9.344;2023-06-14T11:59:49;24.40;60.20
46364;DHT22;32071;49.036;9.344;2023-06-14T12:02:19;24.20;60.00
46364;DHT22;32071;49.036;9.344;2023-06-14T12:04:47;24.10;59.10
46364;DHT22;32071;49.036;9.344;2023-06-14T12:07:16;24.00;60.40
46364;DHT22;32071;49.036;9.344;2023-06-14T12:12:22;23.80;62.10
46364;DHT22;32071;49.036;9.344;2023-06-14T12:14:49;23.70;60.30
46364;DHT22;32071;49.036;9.344;2023-06-14T12:17:17;24.00;59.40
46364;DHT22;32071;49.036;9.344;2023-06-14T12:19:43;25.10;57.70
46364;DHT22;32071;49.036;9.344;2023-06-14T12:22:11;26.50;56.30
46364;DHT22;32071;49.036;9.344;2023-06-14T12:24:36;27.90;54.90
46364;DHT22;32071;49.036;9.344;2023-06-14T12:27:03;29.30;52.50
46364;DHT22;32071;49.036;9.344;2023-06-14T12:29:29;29.10;50.60
46364;DHT22;32071;49.036;9.344;2023-06-14T12:31:55;29.50;48.80
46364;DHT22;32071;49.036;9.344;2023-06-14T12:34:26;29.40;48.20
46364;DHT22;32071;49.036;9.344;2023-06-14T12:36:53;29.70;49.20
46364;DHT22;32071;49.036;9.344;2023-06-14T12:39:20;30.90;49.00
46364;DHT22;32071;49.036;9.344;2023-06-14T12:41:46;31.00;47.80
46364;DHT22;32071;49.036;9.344;2023-06-14T12:44:13;30.40;47.90
46364;DHT22;32071;49.036;9.344;2023-06-14T12:46:39;30.50;48.60
46364;DHT22;32071;49.036;9.344;2023-06-14T12:49:07;30.30;47.90
46364;DHT22;32071;49.036;9.344;2023-06-14T12:51:33;30.30;47.50
46364;DHT22;32071;49.036;9.344;2023-06-14T12:53:58;30.90;48.30
46364;DHT22;32071;49.036;9.344;2023-06-14T12:56:24;30.40;46.80
46364;DHT22;32071;49.036;9.344;2023-06-14T12:58:51;29.50;47.70
46364;DHT22;32071;49.036;9.344;2023-06-14T13:01:19;30.00;47.10
46364;DHT22;32071;49.036;9.344;2023-06-14T13:03:46;30.30;45.90
46364;DHT22;32071;49.036;9.344;2023-06-14T13:06:11;31.00;48.40
46364;DHT22;32071;49.036;9.344;2023-06-14T13:08:37;31.00;44.30
46364;DHT22;32071;49.036;9.344;2023-06-14T13:11:02;30.30;45.80
46364;DHT22;32071;49.036;9.344;2023-06-14T13:13:28;30.50;44.90
46364;DHT22;32071;49.036;9.344;2023-06-14T13:15:54;31.10;44.20
46364;DHT22;32071;49.036;9.344;2023-06-14T13:18:19;31.90;43.20
46364;DHT22;32071;49.036;9.344;2023-06-14T13:20:47;32.40;43.70
46364;DHT22;32071;49.036;9.344;2023-06-14T13:23:15;33.00;45.10
46364;DHT22;32071;49.036;9.344;2023-06-14T13:25:41;33.60;43.50
46364;DHT22;32071;49.036;9.344;2023-06-14T13:28:08;33.90;43.30
46364;DHT22;32071;49.036;9.344;2023-06-14T13:30:34;34.50;43.00
46364;DHT22;32071;49.036;9.344;2023-06-14T13:33:01;34.40;40.80
46364;DHT22;32071;49.036;9.344;2023-06-14T13:35:28;34.40;40.00
46364;DHT22;32071;49.036;9.344;2023-06-14T13:37:54;33.90;40.30
46364;DHT22;32071;49.036;9.344;2023-06-14T13:40:20;33.50;41.00
46364;DHT22;32071;49.036;9.344;2023-06-14T13:42:46;34.60;41.60
46364;DHT22;32071;49.036;9.344;2023-06-14T13:45:12;34.70;39.30
46364;DHT22;32071;49.036;9.344;2023-06-14T13:47:38;34.40;41.20
46364;DHT22;32071;49.036;9.344;2023-06-14T13:50:07;34.50;39.70
46364;DHT22;32071;49.036;9.344;2023-06-14T13:52:32;33.50;41.20
46364;DHT22;32071;49.036;9.344;2023-06-14T13:54:58;32.70;40.70
46364;DHT22;32071;49.036;9.344;2023-06-14T13:57:24;32.80;40.00
46364;DHT22;32071;49.036;9.344;2023-06-14T13:59:49;32.60;39.90
46364;DHT22;32071;49.036;9.344;2023-06-14T14:02:15;32.90;40.30
46364;DHT22;32071;49.036;9.344;2023-06-14T14:04:41;31.90;40.80
46364;DHT22;32071;49.036;9.344;2023-06-14T14:07:07;31.60;42.30
46364;DHT22;32071;49.036;9.344;2023-06-14T14:09:34;30.80;41.70
46364;DHT22;32071;49.036;9.344;2023-06-14T14:12:00;29.20;44.60
46364;DHT22;32071;49.036;9.344;2023-06-14T14:14:29;28.20;46.10
46364;DHT22;32071;49.036;9.344;2023-06-14T14:16:54;27.50;47.40
46364;DHT22;32071;49.036;9.344;2023-06-14T14:19:21;27.10;48.60
46364;DHT22;32071;49.036;9.344;2023-06-14T14:21:47;27.00;48.70
46364;DHT22;32071;49.036;9.344;2023-06-14T14:24:13;27.00;49.90
46364;DHT22;32071;49.036;9.344;2023-06-14T14:26:39;27.00;49.60
46364;DHT22;32071;49.036;9.344;2023-06-14T14:29:05;27.00;50.20
46364;DHT22;32071;49.036;9.344;2023-06-14T14:31:30;27.00;48.90
46364;DHT22;32071;49.036;9.344;2023-06-14T14:33:56;26.70;48.80
46364;DHT22;32071;49.036;9.344;2023-06-14T14:36:22;26.70;49.50
46364;DHT22;32071;49.036;9.344;2023-06-14T14:38:47;26.70;51.70
46364;DHT22;32071;49.036;9.344;2023-06-14T14:41:13;26.60;50.00
46364;DHT22;32071;49.036;9.344;2023-06-14T14:43:39;26.50;51.90
46364;DHT22;32071;49.036;9.344;2023-06-14T14:46:05;26.50;50.90
46364;DHT22;32071;49.036;9.344;2023-06-14T14:48:30;27.40;49.40
46364;DHT22;32071;49.036;9.344;2023-06-14T14:50:56;30.20;47.00
46364;DHT22;32071;49.036;9.344;2023-06-14T14:53:22;33.10;41.60
46364;DHT22;32071;49.036;9.344;2023-06-14T14:55:47;33.70;39.70
46364;DHT22;32071;49.036;9.344;2023-06-14T14:58:13;32.80;40.80
46364;DHT22;32071;49.036;9.344;2023-06-14T15:00:46;31.90;41.10
46364;DHT22;32071;49.036;9.344;2023-06-14T15:03:12;31.80;42.30
46364;DHT22;32071;49.036;9.344;2023-06-14T15:05:38;31.60;42.80
46364;DHT22;32071;49.036;9.344;2023-06-14T15:08:04;32.40;42.80
46364;DHT22;32071;49.036;9.344;2023-06-14T15:10:35;33.90;40.20
46364;DHT22;32071;49.036;9.344;2023-06-14T15:13:01;35.10;39.10
46364;DHT22;32071;49.036;9.344;2023-06-14T15:15:26;35.30;39.10
46364;DHT22;32071;49.036;9.344;2023-06-14T15:17:52;34.30;39.80
46364;DHT22;32071;49.036;9.344;2023-06-14T15:20:17;33.40;39.40
46364;DHT22;32071;49.036;9.344;2023-06-14T15:22:43;31.60;41.90
46364;DHT22;32071;49.036;9.344;2023-06-14T15:25:09;31.10;41.90
46364;DHT22;32071;49.036;9.344;2023-06-14T15:27:34;30.80;43.20
46364;DHT22;32071;49.036;9.344;2023-06-14T15:30:00;31.30;43.70
46364;DHT22;32071;49.036;9.344;2023-06-14T15:32:26;31.90;43.40
46364;DHT22;32071;49.036;9.344;2023-06-14T15:34:52;31.30;43.30
46364;DHT22;32071;49.036;9.344;2023-06-14T15:37:18;31.60;42.40
46364;DHT22;32071;49.036;9.344;2023-06-14T15:39:43;32.60;41.30
46364;DHT22;32071;49.036;9.344;2023-06-14T15:42:09;33.20;41.20